Time;durP1;ratioP1;P1;durP2;ratioP2;P2;SDS_P1;SDS_P2;PMS_P1;PMS_P2;Temp;Humidity;BMP_temperature;BMP_pressure;BME280_temperature;BME280_humidity;BME280_pressure;Samples;Min_cycle;Max_cycle;Signal;HPM_P1;HPM_P2
2023/03/07 00:00:41;;;;;;;;;;;;;;;2.54;77.82;95579.88;5003581;28;20303;-72
2023/03/07 00:03:08;;;;;;;;;;;;;;;2.44;77.55;95581.94;4996012;28;19940;-72
2023/03/07 00:05:33;;;;;;;;;;;;;;;2.39;78.36;95586.78;5003576;28;19957;-72
2023/03/07 00:07:58;;;;;;;;;;;;;;;2.55;78.12;95582.25;5000795;28;20403;-71
2023/03/07 00:10:24;;;;;;;;;;;;;;;2.46;77.62;95584.28;4998626;28;19924;-71
2023/03/07 00:12:50;;;;;;;;;;;;;;;2.42;78.32;95583.41;5003144;28;19918;-71
2023/03/07 00:15:15;;;;;;;;;;;;;;;2.34;78.25;95577.00;4997605;28;19969;-70
2023/03/07 00:17:40;;;;;;;;;;;;;;;2.36;79.11;95580.16;5002765;28;20326;-71
2023/03/07 00:20:09;;;;;;;;;;;;;;;2.32;78.97;95576.53;4999438;28;19928;-71
2023/03/07 00:22:35;;;;;;;;;;;;;;;2.32;78.79;95578.47;5001471;28;20284;-71
2023/03/07 00:25:00;;;;;;;;;;;;;;;2.30;79.50;95578.81;5001569;28;19967;-72
2023/03/07 00:27:26;;;;;;;;;;;;;;;2.26;79.34;95576.00;4998031;28;20299;-71
2023/03/07 00:29:51;;;;;;;;;;;;;;;2.26;78.76;95562.47;5003186;28;20633;-71
2023/03/07 00:32:16;;;;;;;;;;;;;;;2.23;79.41;95574.00;4998534;28;20004;-73
2023/03/07 00:34:41;;;;;;;;;;;;;;;2.26;79.28;95572.50;5023899;28;19928;-71
2023/03/07 00:37:07;;;;;;;;;;;;;;;2.32;79.41;95568.44;5005775;28;19936;-69
2023/03/07 00:39:32;;;;;;;;;;;;;;;2.34;79.51;95568.09;5002837;28;19929;-70
2023/03/07 00:41:58;;;;;;;;;;;;;;;2.31;79.13;95572.28;5004043;28;20382;-71
2023/03/07 00:44:24;;;;;;;;;;;;;;;2.19;79.40;95577.69;4999860;28;19979;-72
2023/03/07 00:46:49;;;;;;;;;;;;;;;2.29;80.25;95579.94;5002688;28;20024;-70
2023/03/07 00:49:15;;;;;;;;;;;;;;;2.28;79.47;95579.13;4998494;28;20017;-71
2023/03/07 00:51:40;;;;;;;;;;;;;;;2.33;79.44;95577.34;5001071;28;19917;-73
2023/03/07 00:54:05;;;;;;;;;;;;;;;2.26;78.69;95573.28;4996839;28;19953;-70
2023/03/07 00:56:31;;;;;;;;;;;;;;;2.29;79.70;95572.63;5000248;28;20476;-71
2023/03/07 00:58:56;;;;;;;;;;;;;;;2.25;79.36;95565.53;5002174;28;19948;-71
2023/03/07 01:01:22;;;;;;;;;;;;;;;2.24;78.24;95572.06;4998502;28;19933;-72
2023/03/07 01:03:48;;;;;;;;;;;;;;;2.23;79.38;95570.47;5002001;28;19956;-73
2023/03/07 01:06:15;;;;;;;;;;;;;;;2.19;79.25;95564.19;5000216;28;19921;-72
2023/03/07 01:08:40;;;;;;;;;;;;;;;2.23;78.95;95571.28;5006195;28;19917;-73
2023/03/07 01:11:06;;;;;;;;;;;;;;;2.18;79.25;95568.00;5001226;28;19924;-72
2023/03/07 01:13:32;;;;;;;;;;;;;;;2.18;79.46;95570.72;5006125;28;20024;-72
2023/03/07 01:16:12;;;;;;;;;;;;;;;2.21;78.53;95561.94;5006604;28;19945;-72
2023/03/07 01:18:37;;;;;;;;;;;;;;;2.20;79.28;95566.56;5003768;28;19922;-73
2023/03/07 01:21:10;;;;;;;;;;;;;;;2.31;78.52;95561.47;5003225;28;19917;-71
2023/03/07 01:23:35;;;;;;;;;;;;;;;2.31;78.40;95566.88;5005975;28;19924;-71
2023/03/07 01:26:00;;;;;;;;;;;;;;;2.24;78.92;95563.97;5006167;28;20409;-71
2023/03/07 01:28:25;;;;;;;;;;;;;;;2.14;79.56;95559.78;5002976;28;19921;-70
2023/03/07 01:30:58;;;;;;;;;;;;;;;2.16;78.89;95557.56;5006341;28;19921;-71
2023/03/07 01:33:23;;;;;;;;;;;;;;;2.01;78.73;95564.44;5000909;28;20109;-70
2023/03/07 01:35:48;;;;;;;;;;;;;;;2.07;78.53;95559.59;5005423;28;19918;-70
2023/03/07 01:38:14;;;;;;;;;;;;;;;2.17;78.94;95569.16;5000538;28;19921;-71
2023/03/07 01:40:39;;;;;;;;;;;;;;;2.08;78.42;95571.97;5003761;28;19922;-70
2023/03/07 01:43:25;;;;;;;;;;;;;;;2.03;78.51;95572.19;5001661;28;19921;-69
2023/03/07 01:45:50;;;;;;;;;;;;;;;2.04;78.84;95571.88;5005933;28;20012;-70
2023/03/07 01:48:16;;;;;;;;;;;;;;;2.12;79.31;95569.38;5000780;28;20048;-72
2023/03/07 01:50:41;;;;;;;;;;;;;;;2.08;79.30;95577.38;5007304;28;19918;-71
2023/03/07 01:53:08;;;;;;;;;;;;;;;2.10;78.56;95564.31;5001107;28;20042;-72
2023/03/07 01:55:33;;;;;;;;;;;;;;;2.08;78.87;95569.28;5003750;28;20079;-72
2023/03/07 01:58:09;;;;;;;;;;;;;;;2.10;79.00;95564.31;5005641;28;19999;-71
2023/03/07 02:00:37;;;;;;;;;;;;;;;2.17;79.06;95563.75;5005098;28;19924;-71
2023/03/07 02:03:05;;;;;;;;;;;;;;;2.24;78.55;95562.03;5003512;28;19985;-70
2023/03/07 02:05:33;;;;;;;;;;;;;;;2.22;79.28;95563.53;5005797;28;19921;-70
2023/03/07 02:08:00;;;;;;;;;;;;;;;2.20;78.79;95558.47;5005811;28;20032;-71
2023/03/07 02:10:25;;;;;;;;;;;;;;;2.13;78.63;95560.94;5001766;28;20012;-72
2023/03/07 02:12:52;;;;;;;;;;;;;;;2.10;79.64;95554.28;5005882;28;19956;-72
2023/03/07 02:15:17;;;;;;;;;;;;;;;2.23;79.02;95554.28;5001167;28;19928;-70
2023/03/07 02:17:43;;;;;;;;;;;;;;;2.26;78.91;95554.38;5005130;28;19918;-72
2023/03/07 02:20:11;;;;;;;;;;;;;;;2.15;79.61;95547.09;5017598;28;19917;-72
2023/03/07 02:22:39;;;;;;;;;;;;;;;2.04;80.71;95547.56;5011292;28;19921;-72
2023/03/07 02:25:10;;;;;;;;;;;;;;;2.06;79.96;95547.22;5003680;28;19932;-72
2023/03/07 02:27:36;;;;;;;;;;;;;;;2.15;80.46;95537.06;5005962;28;19936;-73
2023/03/07 02:30:02;;;;;;;;;;;;;;;2.05;80.74;95543.75;5006341;28;20298;-71
2023/03/07 02:32:28;;;;;;;;;;;;;;;2.09;80.31;95541.16;5003141;28;19949;-72
2023/03/07 02:34:54;;;;;;;;;;;;;;;2.02;80.87;95540.94;5006894;28;19968;-72
2023/03/07 02:37:21;;;;;;;;;;;;;;;2.12;80.07;95537.75;5004475;28;20298;-72
2023/03/07 02:39:47;;;;;;;;;;;;;;;2.08;80.13;95534.94;5006717;28;20534;-70
2023/03/07 02:42:15;;;;;;;;;;;;;;;2.09;80.47;95536.53;5002778;28;19932;-73
2023/03/07 02:44:42;;;;;;;;;;;;;;;1.96;80.28;95537.66;5006665;28;19917;-70
2023/03/07 02:47:08;;;;;;;;;;;;;;;2.05;79.61;95540.22;5001068;28;19940;-71
2023/03/07 02:49:35;;;;;;;;;;;;;;;2.02;80.74;95536.31;5005475;28;20394;-71
2023/03/07 02:52:00;;;;;;;;;;;;;;;2.00;80.83;95540.44;5005769;28;19965;-71
2023/03/07 02:54:26;;;;;;;;;;;;;;;2.03;79.81;95534.38;5000266;28;19922;-72
2023/03/07 02:56:51;;;;;;;;;;;;;;;1.98;79.91;95534.63;5005518;28;19950;-73
2023/03/07 02:59:16;;;;;;;;;;;;;;;2.02;79.97;95533.59;5014326;28;19977;-71
2023/03/07 03:01:42;;;;;;;;;;;;;;;2.01;79.49;95531.25;5023639;28;19918;-73
2023/03/07 03:04:07;;;;;;;;;;;;;;;1.95;80.52;95536.09;4999472;28;20447;-72
2023/03/07 03:06:32;;;;;;;;;;;;;;;2.05;80.10;95534.81;5003167;28;19968;-71
2023/03/07 03:08:57;;;;;;;;;;;;;;;1.93;80.37;95527.53;5004488;28;20383;-71
2023/03/07 03:11:23;;;;;;;;;;;;;;;2.01;79.27;95532.03;5000190;28;19925;-72
2023/03/07 03:13:48;;;;;;;;;;;;;;;2.00;79.89;95535.06;5004665;28;20029;-71
2023/03/07 03:16:13;;;;;;;;;;;;;;;1.96;79.85;95534.16;4999415;28;19927;-71
2023/03/07 03:18:39;;;;;;;;;;;;;;;2.03;78.96;95531.69;5004082;28;19925;-73
2023/03/07 03:21:08;;;;;;;;;;;;;;;2.01;79.73;95517.72;4983418;28;20332;-70
2023/03/07 03:23:33;;;;;;;;;;;;;;;1.87;79.89;95529.69;5004181;28;19917;-70
2023/03/07 03:26:00;;;;;;;;;;;;;;;1.86;79.88;95530.03;5003862;28;19928;-70
2023/03/07 03:28:25;;;;;;;;;;;;;;;1.88;79.85;95517.75;4999945;28;19964;-73
2023/03/07 03:30:58;;;;;;;;;;;;;;;1.86;80.80;95520.00;5002729;28;20022;-71
2023/03/07 03:33:23;;;;;;;;;;;;;;;1.94;80.41;95521.00;4998684;28;20109;-72
2023/03/07 03:35:49;;;;;;;;;;;;;;;2.04;79.71;95523.25;5003618;28;19963;-73
2023/03/07 03:38:14;;;;;;;;;;;;;;;2.01;80.66;95509.63;4998870;28;19971;-72
2023/03/07 03:40:40;;;;;;;;;;;;;;;2.07;80.04;95509.06;5003775;28;19921;-72
2023/03/07 03:43:05;;;;;;;;;;;;;;;1.95;80.58;95503.69;5003697;28;19921;-72
2023/03/07 03:45:30;;;;;;;;;;;;;;;1.95;81.19;95511.00;5005270;28;19921;-72
2023/03/07 03:47:55;;;;;;;;;;;;;;;2.06;80.80;95510.19;5004703;28;19926;-71
2023/03/07 03:50:21;;;;;;;;;;;;;;;2.02;80.65;95500.41;4996831;28;20810;-71
2023/03/07 03:52:46;;;;;;;;;;;;;;;1.92;81.53;95498.94;5003437;28;19917;-71
2023/03/07 03:55:11;;;;;;;;;;;;;;;1.84;81.74;95500.66;4996744;28;19967;-72
2023/03/07 03:57:37;;;;;;;;;;;;;;;1.89;83.20;95507.72;5002805;28;20038;-71
2023/03/07 04:00:04;;;;;;;;;;;;;;;1.99;81.91;95498.38;5000202;28;19921;-70
2023/03/07 04:02:31;;;;;;;;;;;;;;;2.04;80.07;95493.53;5003340;28;19921;-71
2023/03/07 04:04:57;;;;;;;;;;;;;;;1.94;80.81;95493.22;5002577;28;20156;-72
2023/03/07 04:07:24;;;;;;;;;;;;;;;1.94;81.04;95495.91;4996539;28;20759;-72
2023/03/07 04:09:49;;;;;;;;;;;;;;;1.91;79.74;95495.47;5003459;28;19972;-70
2023/03/07 04:12:14;;;;;;;;;;;;;;;1.92;80.22;95486.22;4998864;28;19918;-73
2023/03/07 04:14:40;;;;;;;;;;;;;;;1.87;79.27;95483.78;5002955;28;19917;-73
2023/03/07 04:17:06;;;;;;;;;;;;;;;1.89;78.74;95480.72;5008602;28;19980;-69
2023/03/07 04:19:32;;;;;;;;;;;;;;;1.90;79.19;95477.69;5025542;28;19918;-70
2023/03/07 04:21:57;;;;;;;;;;;;;;;1.95;78.63;95476.69;5025885;28;19926;-72
2023/03/07 04:24:23;;;;;;;;;;;;;;;1.87;78.82;95475.69;5001712;28;20420;-72
2023/03/07 04:26:48;;;;;;;;;;;;;;;1.79;79.39;95475.81;5002692;28;19922;-71
2023/03/07 04:29:14;;;;;;;;;;;;;;;1.85;79.94;95471.75;4997755;28;19917;-72
2023/03/07 04:31:39;;;;;;;;;;;;;;;1.79;79.29;95473.88;5001398;28;19957;-72
2023/03/07 04:34:06;;;;;;;;;;;;;;;1.77;79.20;95478.06;5001122;28;19921;-72
2023/03/07 04:36:31;;;;;;;;;;;;;;;1.72;79.89;95473.66;5008543;28;19975;-72
2023/03/07 04:38:56;;;;;;;;;;;;;;;1.82;79.68;95475.91;5004592;28;20305;-72
2023/03/07 04:41:24;;;;;;;;;;;;;;;1.87;78.93;95466.78;5003442;28;20366;-71
2023/03/07 04:43:50;;;;;;;;;;;;;;;1.89;78.36;95476.13;5001888;28;20003;-71
2023/03/07 04:46:16;;;;;;;;;;;;;;;1.87;78.71;95469.47;4997263;28;20063;-72
2023/03/07 04:48:41;;;;;;;;;;;;;;;1.81;78.02;95470.84;5003351;28;20393;-72
2023/03/07 04:51:06;;;;;;;;;;;;;;;1.86;78.95;95466.00;4996065;28;19937;-71
2023/03/07 04:53:32;;;;;;;;;;;;;;;1.96;77.29;95466.66;5001535;28;19917;-72
2023/03/07 04:56:01;;;;;;;;;;;;;;;1.86;77.67;95460.59;5002311;28;19921;-72
2023/03/07 04:58:26;;;;;;;;;;;;;;;1.74;78.13;95455.22;4998305;28;19972;-72
2023/03/07 05:00:52;;;;;;;;;;;;;;;1.71;78.57;95464.00;5004075;28;20411;-71
2023/03/07 05:03:17;;;;;;;;;;;;;;;1.67;78.29;95458.47;4996642;28;19967;-70
2023/03/07 05:05:43;;;;;;;;;;;;;;;1.84;78.21;95454.75;5002681;28;19961;-72
2023/03/07 05:08:08;;;;;;;;;;;;;;;1.83;77.98;95452.41;4996929;28;19921;-73
2023/03/07 05:10:35;;;;;;;;;;;;;;;1.77;78.08;95446.44;5001648;28;19921;-73
2023/03/07 05:13:02;;;;;;;;;;;;;;;1.78;78.62;95452.63;4999216;28;20156;-74
2023/03/07 05:15:27;;;;;;;;;;;;;;;1.74;78.84;95441.72;4999907;28;20386;-73
2023/03/07 05:17:53;;;;;;;;;;;;;;;1.68;78.58;95445.78;5001413;28;20333;-73
2023/03/07 05:20:18;;;;;;;;;;;;;;;1.74;79.02;95439.03;4997697;28;19924;-73
2023/03/07 05:22:43;;;;;;;;;;;;;;;1.68;79.06;95443.09;5003577;28;20294;-74
2023/03/07 05:25:09;;;;;;;;;;;;;;;1.70;78.93;95441.63;5002221;28;19925;-72
2023/03/07 05:27:34;;;;;;;;;;;;;;;1.65;79.14;95444.53;5011752;28;19921;-73
2023/03/07 05:29:59;;;;;;;;;;;;;;;1.70;79.07;95446.22;5004353;28;20409;-73
2023/03/07 05:32:25;;;;;;;;;;;;;;;1.65;79.72;95432.97;4998319;28;19952;-73
2023/03/07 05:34:51;;;;;;;;;;;;;;;1.60;79.66;95433.97;5001274;28;20020;-72
2023/03/07 05:37:16;;;;;;;;;;;;;;;1.64;79.86;95434.88;4995211;28;19928;-72
2023/03/07 05:39:41;;;;;;;;;;;;;;;1.62;80.46;95422.84;5001750;28;19926;-72
2023/03/07 05:42:07;;;;;;;;;;;;;;;1.67;80.76;95428.78;4995479;28;19921;-72
2023/03/07 05:44:32;;;;;;;;;;;;;;;1.83;79.81;95428.09;5002111;28;19925;-74
2023/03/07 05:46:57;;;;;;;;;;;;;;;1.72;80.04;95425.09;5002550;28;19929;-73
2023/03/07 05:49:23;;;;;;;;;;;;;;;1.72;80.45;95433.19;4997921;28;20087;-72
2023/03/07 05:51:49;;;;;;;;;;;;;;;1.77;80.58;95432.19;5002964;28;19918;-71
2023/03/07 05:54:14;;;;;;;;;;;;;;;1.89;80.06;95432.94;5000720;28;20437;-74
2023/03/07 05:56:39;;;;;;;;;;;;;;;1.78;80.03;95431.03;5012840;28;19918;-72
2023/03/07 05:59:06;;;;;;;;;;;;;;;1.79;81.26;95435.31;5007577;28;19918;-73
2023/03/07 06:01:32;;;;;;;;;;;;;;;1.80;81.11;95429.56;5008370;28;19968;-73
2023/03/07 06:03:57;;;;;;;;;;;;;;;1.84;80.78;95430.47;5005094;28;20421;-74
2023/03/07 06:06:23;;;;;;;;;;;;;;;1.76;81.69;95431.38;5000197;28;20009;-75
2023/03/07 06:08:48;;;;;;;;;;;;;;;1.76;81.14;95434.06;5006262;28;19928;-73
2023/03/07 06:11:13;;;;;;;;;;;;;;;1.74;81.49;95430.94;5001234;28;20363;-73
2023/03/07 06:13:38;;;;;;;;;;;;;;;1.75;81.14;95432.50;5003661;28;19939;-73
2023/03/07 06:16:04;;;;;;;;;;;;;;;1.76;80.94;95428.66;5002002;28;19917;-73
2023/03/07 06:18:29;;;;;;;;;;;;;;;1.76;80.84;95419.78;5005762;28;20359;-74
2023/03/07 06:21:02;;;;;;;;;;;;;;;1.80;80.66;95420.66;5004487;28;19968;-75
2023/03/07 06:23:28;;;;;;;;;;;;;;;1.81;81.21;95416.84;5001241;28;19924;-75
2023/03/07 06:25:53;;;;;;;;;;;;;;;1.87;80.38;95412.78;5005609;28;19921;-76
2023/03/07 06:28:19;;;;;;;;;;;;;;;2.01;80.10;95410.50;5001577;28;20293;-74
2023/03/07 06:30:44;;;;;;;;;;;;;;;2.12;79.82;95410.00;5005006;28;19925;-72
2023/03/07 06:33:10;;;;;;;;;;;;;;;1.98;78.79;95416.59;5000675;28;19928;-69
2023/03/07 06:35:37;;;;;;;;;;;;;;;1.93;78.77;95411.44;5003887;28;19924;-70
2023/03/07 06:38:03;;;;;;;;;;;;;;;1.99;78.71;95411.97;5003255;28;20007;-68
2023/03/07 06:40:28;;;;;;;;;;;;;;;1.94;78.61;95404.09;5003214;28;19921;-70
2023/03/07 06:42:54;;;;;;;;;;;;;;;2.05;78.40;95405.19;5005405;28;19925;-69
2023/03/07 06:45:19;;;;;;;;;;;;;;;2.21;78.05;95407.94;4999244;28;19925;-68
2023/03/07 06:47:44;;;;;;;;;;;;;;;2.27;77.58;95407.38;5005203;28;19921;-69
2023/03/07 06:50:10;;;;;;;;;;;;;;;2.29;77.35;95404.31;4999811;28;20008;-70
2023/03/07 06:52:35;;;;;;;;;;;;;;;2.33;76.57;95401.72;5004327;28;20278;-71
2023/03/07 06:55:00;;;;;;;;;;;;;;;2.39;76.46;95393.00;5004008;28;19925;-71
2023/03/07 06:57:26;;;;;;;;;;;;;;;2.52;76.50;95395.63;4997904;28;19979;-69
2023/03/07 06:59:51;;;;;;;;;;;;;;;2.62;75.99;95398.63;5004469;28;20024;-69
2023/03/07 07:02:16;;;;;;;;;;;;;;;2.68;75.25;95402.66;4999167;28;19983;-70
2023/03/07 07:04:41;;;;;;;;;;;;;;;2.61;75.56;95399.78;5002238;28;19932;-70
2023/03/07 07:07:07;;;;;;;;;;;;;;;2.61;75.68;95394.38;5000331;28;19925;-70
2023/03/07 07:09:32;;;;;;;;;;;;;;;2.72;74.19;95400.03;5002654;28;19987;-69
2023/03/07 07:11:58;;;;;;;;;;;;;;;2.81;74.58;95402.56;5004068;28;19925;-70
2023/03/07 07:14:23;;;;;;;;;;;;;;;2.84;74.26;95399.94;4999312;28;20122;-71
2023/03/07 07:16:49;;;;;;;;;;;;;;;2.77;72.40;95397.06;5001902;28;20063;-70
2023/03/07 07:19:14;;;;;;;;;;;;;;;2.74;71.58;95405.88;5000431;28;19922;-69
2023/03/07 07:21:39;;;;;;;;;;;;;;;2.90;70.58;95403.19;5004838;28;20016;-69
2023/03/07 07:24:05;;;;;;;;;;;;;;;2.81;70.19;95408.78;4999070;28;20003;-69
2023/03/07 07:26:30;;;;;;;;;;;;;;;2.73;69.13;95408.94;5004984;28;20398;-69
2023/03/07 07:28:55;;;;;;;;;;;;;;;2.89;68.90;95404.31;5005500;28;19983;-70
2023/03/07 07:31:21;;;;;;;;;;;;;;;2.83;70.25;95401.09;4998988;28;20118;-69
2023/03/07 07:33:46;;;;;;;;;;;;;;;2.87;68.60;95410.06;5004513;28;19921;-69
2023/03/07 07:36:11;;;;;;;;;;;;;;;2.87;67.91;95410.06;4999682;28;20379;-69
2023/03/07 07:38:37;;;;;;;;;;;;;;;2.88;67.79;95408.16;5009702;28;19925;-67
2023/03/07 07:41:02;;;;;;;;;;;;;;;2.98;67.73;95410.34;5008696;28;20395;-69
2023/03/07 07:43:27;;;;;;;;;;;;;;;3.12;68.15;95412.63;5006386;28;19924;-70
2023/03/07 07:45:53;;;;;;;;;;;;;;;3.29;68.04;95399.84;5005021;28;19972;-68
2023/03/07 07:48:18;;;;;;;;;;;;;;;3.17;67.73;95406.13;4999052;28;19925;-68
2023/03/07 07:50:43;;;;;;;;;;;;;;;3.17;67.61;95406.13;5003806;28;19917;-69
2023/03/07 07:53:09;;;;;;;;;;;;;;;3.22;67.01;95406.69;5004783;28;19928;-69
2023/03/07 07:55:34;;;;;;;;;;;;;;;3.24;67.27;95399.00;5023265;28;19917;-69
2023/03/07 07:57:59;;;;;;;;;;;;;;;3.21;68.18;95404.31;5014334;28;20008;-70
2023/03/07 08:00:25;;;;;;;;;;;;;;;3.17;67.38;95398.81;5008780;28;19918;-69
2023/03/07 08:02:50;;;;;;;;;;;;;;;3.22;66.86;95401.28;5011176;28;19952;-70
2023/03/07 08:05:17;;;;;;;;;;;;;;;3.35;66.38;95398.44;5003828;28;20027;-70
2023/03/07 08:07:42;;;;;;;;;;;;;;;3.18;66.65;95397.69;5004579;28;19937;-69
2023/03/07 08:10:08;;;;;;;;;;;;;;;3.41;66.76;95397.81;5001245;28;19921;-69
2023/03/07 08:12:34;;;;;;;;;;;;;;;3.52;64.73;95391.88;5003960;28;19944;-68
2023/03/07 08:14:59;;;;;;;;;;;;;;;3.59;65.54;95387.41;5004419;28;19917;-70
2023/03/07 08:17:24;;;;;;;;;;;;;;;3.96;63.56;95397.88;5001293;28;19918;-69
2023/03/07 08:19:49;;;;;;;;;;;;;;;4.22;61.34;95393.72;5008581;28;19917;-69
2023/03/07 08:22:15;;;;;;;;;;;;;;;4.08;61.79;95396.94;5008876;28;19960;-70
2023/03/07 08:24:41;;;;;;;;;;;;;;;3.73;62.49;95397.75;5009791;28;19917;-70
2023/03/07 08:27:06;;;;;;;;;;;;;;;4.07;61.24;95394.56;4999000;28;19940;-70
2023/03/07 08:29:32;;;;;;;;;;;;;;;4.38;60.20;95391.72;5006331;28;19928;-71
2023/03/07 08:31:57;;;;;;;;;;;;;;;4.03;61.33;95397.22;4988282;28;19932;-69
2023/03/07 08:34:22;;;;;;;;;;;;;;;4.27;59.97;95398.88;5001239;28;19918;-68
2023/03/07 08:36:47;;;;;;;;;;;;;;;4.30;59.47;95391.94;5002782;28;19971;-69
2023/03/07 08:39:13;;;;;;;;;;;;;;;4.57;58.85;95385.50;5001581;28;19964;-70
2023/03/07 08:41:38;;;;;;;;;;;;;;;4.12;58.30;95378.81;5004811;28;19918;-70
2023/03/07 08:44:04;;;;;;;;;;;;;;;4.05;59.13;95377.88;5000597;28;19992;-69
2023/03/07 08:46:29;;;;;;;;;;;;;;;4.44;58.60;95378.66;5003779;28;20726;-69
2023/03/07 08:48:55;;;;;;;;;;;;;;;4.71;57.18;95376.81;4988007;28;19929;-70
2023/03/07 08:51:20;;;;;;;;;;;;;;;4.70;56.61;95374.47;5000358;28;19922;-69
2023/03/07 08:53:45;;;;;;;;;;;;;;;4.71;57.64;95367.91;5003971;28;20378;-70
2023/03/07 08:56:13;;;;;;;;;;;;;;;4.75;55.75;95371.44;5000970;28;19948;-69
2023/03/07 08:58:38;;;;;;;;;;;;;;;4.89;55.47;95374.41;5002971;28;19941;-70
2023/03/07 09:01:04;;;;;;;;;;;;;;;4.71;55.95;95370.63;5000539;28;19917;-68
2023/03/07 09:03:29;;;;;;;;;;;;;;;4.52;55.16;95380.38;5004697;28;20271;-70
2023/03/07 09:05:54;;;;;;;;;;;;;;;4.63;55.80;95377.84;5005696;28;19921;-69
2023/03/07 09:08:20;;;;;;;;;;;;;;;4.62;54.58;95375.50;5001885;28;19929;-69
2023/03/07 09:10:45;;;;;;;;;;;;;;;4.84;54.21;95382.06;5005780;28;19918;-69
2023/03/07 09:13:11;;;;;;;;;;;;;;;4.39;55.10;95382.47;4997738;28;19984;-69
2023/03/07 09:15:40;;;;;;;;;;;;;;;4.21;55.49;95378.59;5003023;28;20290;-68
2023/03/07 09:18:06;;;;;;;;;;;;;;;4.16;56.06;95379.69;4999386;28;19918;-68
2023/03/07 09:20:31;;;;;;;;;;;;;;;4.44;56.00;95361.63;5006955;28;20339;-69
2023/03/07 09:22:57;;;;;;;;;;;;;;;4.64;55.47;95362.34;5003695;28;19964;-69
2023/03/07 09:25:22;;;;;;;;;;;;;;;4.60;54.52;95371.19;4998693;28;19952;-67
2023/03/07 09:27:48;;;;;;;;;;;;;;;4.57;54.63;95363.00;5007925;28;19928;-69
2023/03/07 09:30:14;;;;;;;;;;;;;;;4.96;54.08;95358.25;5004448;28;19917;-68
2023/03/07 09:32:39;;;;;;;;;;;;;;;5.09;53.83;95356.13;5009021;28;19918;-69
2023/03/07 09:35:05;;;;;;;;;;;;;;;4.76;53.54;95351.34;5003846;28;20300;-66
2023/03/07 09:37:30;;;;;;;;;;;;;;;5.09;53.20;95349.91;5007913;28;19924;-71
2023/03/07 09:39:55;;;;;;;;;;;;;;;5.12;52.87;95349.19;5008804;28;19941;-69
2023/03/07 09:42:39;;;;;;;;;;;;;;;5.41;52.86;95338.78;5004571;28;20320;-69
2023/03/07 09:45:10;;;;;;;;;;;;;;;5.30;52.21;95335.91;5001275;28;19922;-69
2023/03/07 09:47:42;;;;;;;;;;;;;;;5.36;51.50;95329.78;5007534;28;19922;-69
2023/03/07 09:50:10;;;;;;;;;;;;;;;5.36;52.03;95323.56;5004592;28;20388;-69
2023/03/07 09:52:38;;;;;;;;;;;;;;;5.33;51.07;95327.00;5008083;28;19918;-70
2023/03/07 09:55:08;;;;;;;;;;;;;;;5.50;51.67;95326.47;5003619;28;20016;-68
2023/03/07 09:57:46;;;;;;;;;;;;;;;5.55;51.02;95320.72;5005674;28;19967;-69
2023/03/07 10:00:30;;;;;;;;;;;;;;;5.41;51.42;95317.03;5003346;28;20008;-69
2023/03/07 10:03:17;;;;;;;;;;;;;;;5.71;51.10;95315.13;5009388;28;19928;-70
2023/03/07 10:05:49;;;;;;;;;;;;;;;6.55;49.33;95295.84;5010687;28;19933;-69
2023/03/07 10:08:18;;;;;;;;;;;;;;;6.40;48.16;95303.09;5006782;28;20379;-69
2023/03/07 10:11:02;;;;;;;;;;;;;;;6.29;47.94;95303.00;5022728;28;19940;-68
2023/03/07 10:13:34;;;;;;;;;;;;;;;6.08;48.63;95303.53;5019074;28;20346;-68
2023/03/07 10:16:01;;;;;;;;;;;;;;;6.15;49.31;95297.41;5014239;28;19972;-68
2023/03/07 10:18:30;;;;;;;;;;;;;;;6.11;48.58;95293.88;5008674;28;19925;-70
2023/03/07 10:21:01;;;;;;;;;;;;;;;6.44;48.04;95286.81;5013227;28;19932;-71
2023/03/07 10:23:30;;;;;;;;;;;;;;;6.41;48.58;95282.94;5015489;28;19925;-70
2023/03/07 10:26:14;;;;;;;;;;;;;;;6.06;48.68;95284.09;5021603;28;20013;-70
2023/03/07 10:28:41;;;;;;;;;;;;;;;6.19;48.49;95264.81;5014542;28;19969;-67
2023/03/07 10:31:14;;;;;;;;;;;;;;;6.73;47.17;95254.44;5003626;28;19931;-66
2023/03/07 10:33:41;;;;;;;;;;;;;;;7.42;45.98;95256.47;5008322;28;19917;-69
2023/03/07 10:36:11;;;;;;;;;;;;;;;8.30;44.94;95265.34;5002623;28;19921;-67
2023/03/07 10:38:42;;;;;;;;;;;;;;;9.47;42.11;95257.53;5001873;28;19921;-70
2023/03/07 10:41:11;;;;;;;;;;;;;;;9.46;41.65;95255.97;5000818;28;20089;-69
2023/03/07 10:43:37;;;;;;;;;;;;;;;10.32;40.26;95249.41;5004483;28;20172;-69
2023/03/07 10:46:12;;;;;;;;;;;;;;;9.89;40.30;95244.88;5018067;28;19921;-68
2023/03/07 10:48:41;;;;;;;;;;;;;;;9.76;41.28;95241.81;5007484;28;19925;-69
2023/03/07 10:51:25;;;;;;;;;;;;;;;9.93;39.85;95239.41;4999533;28;19917;-69
2023/03/07 10:53:51;;;;;;;;;;;;;;;9.53;40.95;95236.06;5007055;28;20302;-71
2023/03/07 10:56:17;;;;;;;;;;;;;;;9.36;40.89;95224.78;4983715;28;19924;-69
2023/03/07 10:58:59;;;;;;;;;;;;;;;9.52;41.37;95223.53;5006467;28;19925;-69
2023/03/07 11:01:26;;;;;;;;;;;;;;;9.55;40.90;95223.53;5000554;28;19917;-69
2023/03/07 11:03:57;;;;;;;;;;;;;;;9.64;40.49;95214.91;5005951;28;19928;-69
2023/03/07 11:06:25;;;;;;;;;;;;;;;9.14;41.11;95206.88;5003577;28;20509;-69
2023/03/07 11:08:50;;;;;;;;;;;;;;;8.89;41.42;95212.38;5006057;28;19928;-69
2023/03/07 11:11:23;;;;;;;;;;;;;;;9.64;40.36;95206.72;5000013;28;19921;-68
2023/03/07 11:14:08;;;;;;;;;;;;;;;10.09;39.84;95206.88;5007772;28;19921;-68
2023/03/07 11:16:38;;;;;;;;;;;;;;;10.30;39.24;95197.78;5006372;28;19928;-67
2023/03/07 11:19:22;;;;;;;;;;;;;;;10.32;39.58;95192.69;5005302;28;19967;-67
2023/03/07 11:21:54;;;;;;;;;;;;;;;10.32;39.28;95194.66;5010219;28;20426;-69
2023/03/07 11:24:46;;;;;;;;;;;;;;;9.95;39.46;95196.78;5005678;28;19933;-67
2023/03/07 11:27:18;;;;;;;;;;;;;;;9.15;40.97;95198.28;5002748;28;19921;-69
2023/03/07 11:29:55;;;;;;;;;;;;;;;9.94;39.42;95189.00;5007743;28;20016;-69
2023/03/07 11:32:23;;;;;;;;;;;;;;;9.65;40.32;95186.41;5002785;28;19917;-70
2023/03/07 11:34:52;;;;;;;;;;;;;;;9.62;40.26;95183.69;5007303;28;19922;-68
2023/03/07 11:37:23;;;;;;;;;;;;;;;9.87;38.89;95181.63;5000189;28;19921;-68
2023/03/07 11:39:54;;;;;;;;;;;;;;;10.23;39.25;95170.47;5004710;28;20386;-71
2023/03/07 11:42:22;;;;;;;;;;;;;;;10.62;38.51;95171.34;4998760;28;20302;-69
2023/03/07 11:44:52;;;;;;;;;;;;;;;10.13;38.58;95166.59;5003557;28;19921;-69
2023/03/07 11:47:29;;;;;;;;;;;;;;;9.82;39.34;95171.09;5000342;28;19988;-70
2023/03/07 11:49:55;;;;;;;;;;;;;;;9.57;40.21;95160.28;5005727;28;19921;-69
2023/03/07 11:52:39;;;;;;;;;;;;;;;9.42;40.74;95166.97;5001115;28;20386;-69
2023/03/07 11:55:10;;;;;;;;;;;;;;;10.32;38.93;95161.81;5003429;28;19964;-67
2023/03/07 11:57:38;;;;;;;;;;;;;;;9.72;39.57;95150.03;5007629;28;19921;-69
2023/03/07 12:00:03;;;;;;;;;;;;;;;10.70;38.97;95159.19;5002523;28;19917;-69
2023/03/07 12:02:46;;;;;;;;;;;;;;;10.70;38.02;95157.22;5003633;28;20024;-69
2023/03/07 12:05:19;;;;;;;;;;;;;;;10.68;38.10;95153.34;4997223;28;20017;-70
2023/03/07 12:08:03;;;;;;;;;;;;;;;10.40;38.21;95154.34;5003123;28;19984;-70
2023/03/07 12:10:29;;;;;;;;;;;;;;;10.54;37.97;95142.50;5003683;28;19917;-68
2023/03/07 12:13:13;;;;;;;;;;;;;;;10.30;38.61;95150.47;5003947;28;20368;-69
2023/03/07 12:15:40;;;;;;;;;;;;;;;11.56;36.61;95147.31;5002777;28;19917;-69
2023/03/07 12:18:15;;;;;;;;;;;;;;;10.83;37.67;95138.31;4998971;28;19917;-68
2023/03/07 12:21:04;;;;;;;;;;;;;;;10.06;38.74;95138.53;5002372;28;20457;-69
2023/03/07 12:23:50;;;;;;;;;;;;;;;10.70;38.04;95131.78;4992280;28;19917;-68
2023/03/07 12:26:18;;;;;;;;;;;;;;;10.85;37.52;95121.47;5005608;28;20402;-70
2023/03/07 12:28:57;;;;;;;;;;;;;;;11.02;37.51;95119.72;5003379;28;20406;-71
2023/03/07 12:31:36;;;;;;;;;;;;;;;10.89;37.13;95114.78;4996499;28;20363;-72
2023/03/07 12:34:08;;;;;;;;;;;;;;;11.13;36.79;95105.91;5003681;28;20365;-69
2023/03/07 12:36:39;;;;;;;;;;;;;;;10.68;37.81;95099.34;5002322;28;19975;-70
2023/03/07 12:39:10;;;;;;;;;;;;;;;9.94;38.58;95101.50;4999442;28;19917;-70
2023/03/07 12:41:46;;;;;;;;;;;;;;;10.35;38.77;95100.03;5004281;28;19925;-68
2023/03/07 12:44:26;;;;;;;;;;;;;;;11.50;36.69;95091.34;5001725;28;19917;-69
2023/03/07 12:46:56;;;;;;;;;;;;;;;12.10;35.63;95086.25;5006678;28;20060;-68
2023/03/07 12:49:26;;;;;;;;;;;;;;;12.03;35.62;95095.34;5000949;28;19917;-68
2023/03/07 12:51:54;;;;;;;;;;;;;;;11.50;36.38;95087.84;5010531;28;19918;-70
2023/03/07 12:54:31;;;;;;;;;;;;;;;11.52;36.67;95080.75;5004314;28;19924;-69
2023/03/07 12:57:07;;;;;;;;;;;;;;;11.57;35.77;95079.53;5004418;28;19925;-70